sensor_id;sensor_type;location;lat;lon;timestamp;P1;durP1;ratioP1;P2;durP2;ratioP2
61741;SDS011;47650;49.848;9.620;2022-10-15T00:02:16;5.50;;;3.72;;
61741;SDS011;47650;49.848;9.620;2022-10-15T00:04:41;5.90;;;4.40;;
61741;SDS011;47650;49.848;9.620;2022-10-15T00:07:06;5.55;;;3.83;;
61741;SDS011;47650;49.848;9.620;2022-10-15T00:09:31;7.22;;;4.93;;
61741;SDS011;47650;49.848;9.620;2022-10-15T00:11:57;9.23;;;5.88;;
61741;SDS011;47650;49.848;9.620;2022-10-15T00:14:23;8.43;;;6.10;;
61741;SDS011;47650;49.848;9.620;2022-10-15T00:16:49;8.18;;;5.10;;
61741;SDS011;47650;49.848;9.620;2022-10-15T00:19:14;8.07;;;5.50;;
61741;SDS011;47650;49.848;9.620;2022-10-15T00:21:39;9.90;;;6.00;;
61741;SDS011;47650;49.848;9.620;2022-10-15T00:24:05;7.63;;;5.55;;
61741;SDS011;47650;49.848;9.620;2022-10-15T00:26:31;10.73;;;5.82;;
61741;SDS011;47650;49.848;9.620;2022-10-15T00:28:59;6.35;;;5.15;;
61741;SDS011;47650;49.848;9.620;2022-10-15T00:31:28;6.38;;;5.72;;
61741;SDS011;47650;49.848;9.620;2022-10-15T00:33:56;7.93;;;6.20;;
61741;SDS011;47650;49.848;9.620;2022-10-15T00:36:24;7.88;;;5.20;;
61741;SDS011;47650;49.848;9.620;2022-10-15T00:38:51;10.68;;;6.85;;
61741;SDS011;47650;49.848;9.620;2022-10-15T00:41:21;8.95;;;7.07;;
61741;SDS011;47650;49.848;9.620;2022-10-15T00:43:48;9.65;;;6.75;;
61741;SDS011;47650;49.848;9.620;2022-10-15T00:46:21;16.20;;;8.82;;
61741;SDS011;47650;49.848;9.620;2022-10-15T00:48:53;12.68;;;7.35;;
61741;SDS011;47650;49.848;9.620;2022-10-15T00:51:22;14.52;;;8.93;;
61741;SDS011;47650;49.848;9.620;2022-10-15T00:53:53;13.43;;;8.85;;
61741;SDS011;47650;49.848;9.620;2022-10-15T00:56:19;9.10;;;7.85;;
61741;SDS011;47650;49.848;9.620;2022-10-15T00:58:48;9.02;;;6.70;;
61741;SDS011;47650;49.848;9.620;2022-10-15T01:01:15;12.73;;;8.90;;
61741;SDS011;47650;49.848;9.620;2022-10-15T01:03:42;11.40;;;8.18;;
61741;SDS011;47650;49.848;9.620;2022-10-15T01:06:08;10.52;;;8.82;;
61741;SDS011;47650;49.848;9.620;2022-10-15T01:08:35;13.32;;;10.00;;
61741;SDS011;47650;49.848;9.620;2022-10-15T01:11:08;15.77;;;10.50;;
61741;SDS011;47650;49.848;9.620;2022-10-15T01:16:35;12.25;;;10.07;;
61741;SDS011;47650;49.848;9.620;2022-10-15T01:22:05;15.23;;;10.93;;
61741;SDS011;47650;49.848;9.620;2022-10-15T01:27:56;19.63;;;12.35;;
61741;SDS011;47650;49.848;9.620;2022-10-15T01:30:44;15.23;;;10.15;;
61741;SDS011;47650;49.848;9.620;2022-10-15T01:33:21;12.80;;;9.55;;
61741;SDS011;47650;49.848;9.620;2022-10-15T01:41:23;15.88;;;11.18;;
61741;SDS011;47650;49.848;9.620;2022-10-15T01:43:59;12.10;;;9.57;;
61741;SDS011;47650;49.848;9.620;2022-10-15T01:49:27;16.27;;;11.27;;
61741;SDS011;47650;49.848;9.620;2022-10-15T01:51:55;12.25;;;9.35;;
61741;SDS011;47650;49.848;9.620;2022-10-15T01:54:23;14.13;;;9.95;;
61741;SDS011;47650;49.848;9.620;2022-10-15T01:56:50;17.58;;;11.48;;
61741;SDS011;47650;49.848;9.620;2022-10-15T01:59:17;23.30;;;14.23;;
61741;SDS011;47650;49.848;9.620;2022-10-15T02:01:46;25.17;;;15.77;;
61741;SDS011;47650;49.848;9.620;2022-10-15T02:04:16;18.35;;;12.93;;
61741;SDS011;47650;49.848;9.620;2022-10-15T02:06:44;21.42;;;14.27;;
61741;SDS011;47650;49.848;9.620;2022-10-15T02:15:16;19.05;;;11.60;;
61741;SDS011;47650;49.848;9.620;2022-10-15T02:21:13;18.40;;;12.75;;
61741;SDS011;47650;49.848;9.620;2022-10-15T02:26:26;17.88;;;12.35;;
61741;SDS011;47650;49.848;9.620;2022-10-15T02:28:56;19.50;;;12.82;;
61741;SDS011;47650;49.848;9.620;2022-10-15T02:31:24;19.10;;;12.07;;
61741;SDS011;47650;49.848;9.620;2022-10-15T02:33:53;19.80;;;10.77;;
61741;SDS011;47650;49.848;9.620;2022-10-15T02:36:21;17.23;;;10.70;;
61741;SDS011;47650;49.848;9.620;2022-10-15T02:38:47;15.25;;;10.88;;
61741;SDS011;47650;49.848;9.620;2022-10-15T02:41:17;20.02;;;12.65;;
61741;SDS011;47650;49.848;9.620;2022-10-15T02:43:44;22.80;;;12.38;;
61741;SDS011;47650;49.848;9.620;2022-10-15T02:46:11;24.65;;;13.93;;
61741;SDS011;47650;49.848;9.620;2022-10-15T02:48:38;20.45;;;13.25;;
61741;SDS011;47650;49.848;9.620;2022-10-15T02:51:04;23.15;;;14.73;;
61741;SDS011;47650;49.848;9.620;2022-10-15T02:53:29;29.30;;;16.05;;
61741;SDS011;47650;49.848;9.620;2022-10-15T02:55:54;25.33;;;16.35;;
61741;SDS011;47650;49.848;9.620;2022-10-15T02:58:20;23.10;;;14.25;;
61741;SDS011;47650;49.848;9.620;2022-10-15T03:00:45;19.95;;;14.00;;
61741;SDS011;47650;49.848;9.620;2022-10-15T03:03:10;24.58;;;15.13;;
61741;SDS011;47650;49.848;9.620;2022-10-15T03:05:36;21.35;;;15.05;;
61741;SDS011;47650;49.848;9.620;2022-10-15T03:08:01;27.95;;;15.02;;
61741;SDS011;47650;49.848;9.620;2022-10-15T03:10:28;21.38;;;13.80;;
61741;SDS011;47650;49.848;9.620;2022-10-15T03:12:53;18.30;;;13.30;;
61741;SDS011;47650;49.848;9.620;2022-10-15T03:15:19;16.10;;;11.50;;
61741;SDS011;47650;49.848;9.620;2022-10-15T03:17:44;19.83;;;12.70;;
61741;SDS011;47650;49.848;9.620;2022-10-15T03:20:10;17.33;;;11.88;;
61741;SDS011;47650;49.848;9.620;2022-10-15T03:22:41;25.60;;;14.05;;
61741;SDS011;47650;49.848;9.620;2022-10-15T03:25:07;17.98;;;11.60;;
61741;SDS011;47650;49.848;9.620;2022-10-15T03:27:32;16.88;;;10.68;;
61741;SDS011;47650;49.848;9.620;2022-10-15T03:29:59;18.17;;;10.90;;
61741;SDS011;47650;49.848;9.620;2022-10-15T03:32:25;13.82;;;10.23;;
61741;SDS011;47650;49.848;9.620;2022-10-15T03:34:57;13.88;;;9.65;;
61741;SDS011;47650;49.848;9.620;2022-10-15T03:37:22;13.80;;;9.88;;
61741;SDS011;47650;49.848;9.620;2022-10-15T03:39:47;14.38;;;9.65;;
61741;SDS011;47650;49.848;9.620;2022-10-15T03:42:13;18.30;;;11.25;;
61741;SDS011;47650;49.848;9.620;2022-10-15T03:44:38;15.88;;;10.65;;
61741;SDS011;47650;49.848;9.620;2022-10-15T03:47:04;16.55;;;10.68;;
61741;SDS011;47650;49.848;9.620;2022-10-15T03:49:29;21.98;;;13.43;;
61741;SDS011;47650;49.848;9.620;2022-10-15T03:51:54;17.05;;;11.52;;
61741;SDS011;47650;49.848;9.620;2022-10-15T03:54:19;14.73;;;10.55;;
61741;SDS011;47650;49.848;9.620;2022-10-15T03:56:46;16.33;;;10.73;;
61741;SDS011;47650;49.848;9.620;2022-10-15T03:59:12;14.10;;;10.57;;
61741;SDS011;47650;49.848;9.620;2022-10-15T04:01:38;15.23;;;9.50;;
61741;SDS011;47650;49.848;9.620;2022-10-15T04:04:06;14.82;;;9.32;;
61741;SDS011;47650;49.848;9.620;2022-10-15T04:06:31;14.45;;;8.65;;
61741;SDS011;47650;49.848;9.620;2022-10-15T04:08:58;14.38;;;8.85;;
61741;SDS011;47650;49.848;9.620;2022-10-15T04:11:24;13.35;;;8.80;;
61741;SDS011;47650;49.848;9.620;2022-10-15T04:13:49;10.75;;;7.53;;
61741;SDS011;47650;49.848;9.620;2022-10-15T04:16:14;10.00;;;7.90;;
61741;SDS011;47650;49.848;9.620;2022-10-15T04:18:41;14.70;;;9.15;;
61741;SDS011;47650;49.848;9.620;2022-10-15T04:21:07;12.57;;;11.23;;
61741;SDS011;47650;49.848;9.620;2022-10-15T04:23:40;10.82;;;9.23;;
61741;SDS011;47650;49.848;9.620;2022-10-15T04:26:06;12.18;;;9.50;;
61741;SDS011;47650;49.848;9.620;2022-10-15T04:28:32;13.57;;;8.85;;
61741;SDS011;47650;49.848;9.620;2022-10-15T04:30:58;12.73;;;9.50;;
61741;SDS011;47650;49.848;9.620;2022-10-15T04:33:24;13.40;;;9.90;;
61741;SDS011;47650;49.848;9.620;2022-10-15T04:36:04;13.60;;;9.20;;
61741;SDS011;47650;49.848;9.620;2022-10-15T04:38:31;16.08;;;10.45;;
61741;SDS011;47650;49.848;9.620;2022-10-15T04:41:00;16.92;;;9.55;;
61741;SDS011;47650;49.848;9.620;2022-10-15T04:43:28;15.20;;;9.55;;
61741;SDS011;47650;49.848;9.620;2022-10-15T04:46:00;12.40;;;8.15;;
61741;SDS011;47650;49.848;9.620;2022-10-15T04:48:27;14.30;;;9.43;;
61741;SDS011;47650;49.848;9.620;2022-10-15T04:50:53;12.38;;;8.18;;
61741;SDS011;47650;49.848;9.620;2022-10-15T04:53:19;17.00;;;10.35;;
61741;SDS011;47650;49.848;9.620;2022-10-15T04:55:44;10.93;;;9.30;;
61741;SDS011;47650;49.848;9.620;2022-10-15T04:58:10;17.10;;;10.57;;
61741;SDS011;47650;49.848;9.620;2022-10-15T05:00:37;20.65;;;13.65;;
61741;SDS011;47650;49.848;9.620;2022-10-15T05:03:04;10.38;;;6.03;;
61741;SDS011;47650;49.848;9.620;2022-10-15T05:05:30;9.30;;;6.35;;
61741;SDS011;47650;49.848;9.620;2022-10-15T05:07:59;4.22;;;3.22;;
61741;SDS011;47650;49.848;9.620;2022-10-15T05:10:25;6.35;;;3.80;;
61741;SDS011;47650;49.848;9.620;2022-10-15T05:12:51;3.40;;;2.05;;
61741;SDS011;47650;49.848;9.620;2022-10-15T05:15:17;2.22;;;1.60;;
61741;SDS011;47650;49.848;9.620;2022-10-15T05:17:42;2.88;;;1.73;;
61741;SDS011;47650;49.848;9.620;2022-10-15T05:20:08;3.22;;;2.00;;
61741;SDS011;47650;49.848;9.620;2022-10-15T05:22:40;4.45;;;2.30;;
61741;SDS011;47650;49.848;9.620;2022-10-15T05:25:05;2.95;;;2.40;;
61741;SDS011;47650;49.848;9.620;2022-10-15T05:27:31;2.90;;;2.15;;
61741;SDS011;47650;49.848;9.620;2022-10-15T05:29:58;3.65;;;1.40;;
61741;SDS011;47650;49.848;9.620;2022-10-15T05:32:24;4.05;;;1.52;;
61741;SDS011;47650;49.848;9.620;2022-10-15T05:34:49;4.55;;;1.60;;
61741;SDS011;47650;49.848;9.620;2022-10-15T05:37:14;5.32;;;2.00;;
61741;SDS011;47650;49.848;9.620;2022-10-15T05:39:46;3.75;;;2.10;;
61741;SDS011;47650;49.848;9.620;2022-10-15T05:42:12;3.70;;;2.40;;
61741;SDS011;47650;49.848;9.620;2022-10-15T05:44:37;4.45;;;2.10;;
61741;SDS011;47650;49.848;9.620;2022-10-15T05:47:04;3.28;;;1.88;;
61741;SDS011;47650;49.848;9.620;2022-10-15T05:49:31;3.88;;;3.03;;
61741;SDS011;47650;49.848;9.620;2022-10-15T05:52:00;4.20;;;2.67;;
61741;SDS011;47650;49.848;9.620;2022-10-15T05:54:25;3.28;;;2.90;;
61741;SDS011;47650;49.848;9.620;2022-10-15T05:56:51;3.55;;;2.40;;
61741;SDS011;47650;49.848;9.620;2022-10-15T05:59:17;3.08;;;2.20;;
61741;SDS011;47650;49.848;9.620;2022-10-15T06:01:44;4.97;;;2.38;;
61741;SDS011;47650;49.848;9.620;2022-10-15T06:04:09;3.33;;;2.20;;
61741;SDS011;47650;49.848;9.620;2022-10-15T06:06:36;5.10;;;2.40;;
61741;SDS011;47650;49.848;9.620;2022-10-15T06:09:02;8.23;;;5.53;;
61741;SDS011;47650;49.848;9.620;2022-10-15T06:11:27;6.28;;;3.25;;
61741;SDS011;47650;49.848;9.620;2022-10-15T06:13:53;5.47;;;3.70;;
61741;SDS011;47650;49.848;9.620;2022-10-15T06:16:18;5.60;;;2.63;;
61741;SDS011;47650;49.848;9.620;2022-10-15T06:18:43;4.88;;;3.03;;
61741;SDS011;47650;49.848;9.620;2022-10-15T06:21:09;5.85;;;2.63;;
61741;SDS011;47650;49.848;9.620;2022-10-15T06:23:35;3.33;;;2.03;;
61741;SDS011;47650;49.848;9.620;2022-10-15T06:26:06;3.60;;;1.98;;
61741;SDS011;47650;49.848;9.620;2022-10-15T06:28:32;4.78;;;3.08;;
61741;SDS011;47650;49.848;9.620;2022-10-15T06:31:00;2.78;;;1.98;;
61741;SDS011;47650;49.848;9.620;2022-10-15T06:33:26;2.60;;;1.98;;
61741;SDS011;47650;49.848;9.620;2022-10-15T06:35:59;1.85;;;1.40;;
61741;SDS011;47650;49.848;9.620;2022-10-15T06:38:25;2.03;;;1.60;;
61741;SDS011;47650;49.848;9.620;2022-10-15T06:40:51;5.43;;;1.60;;
61741;SDS011;47650;49.848;9.620;2022-10-15T06:43:18;1.42;;;1.30;;
61741;SDS011;47650;49.848;9.620;2022-10-15T06:45:44;2.35;;;2.00;;
61741;SDS011;47650;49.848;9.620;2022-10-15T06:48:10;4.10;;;2.38;;
61741;SDS011;47650;49.848;9.620;2022-10-15T06:50:36;4.78;;;2.40;;
61741;SDS011;47650;49.848;9.620;2022-10-15T06:53:03;4.40;;;2.30;;
61741;SDS011;47650;49.848;9.620;2022-10-15T06:55:29;3.25;;;2.35;;
61741;SDS011;47650;49.848;9.620;2022-10-15T06:57:55;4.43;;;2.35;;
61741;SDS011;47650;49.848;9.620;2022-10-15T07:00:20;3.67;;;2.10;;
61741;SDS011;47650;49.848;9.620;2022-10-15T07:02:48;4.30;;;2.78;;
61741;SDS011;47650;49.848;9.620;2022-10-15T07:05:14;5.25;;;2.88;;
61741;SDS011;47650;49.848;9.620;2022-10-15T07:07:39;4.40;;;2.70;;
61741;SDS011;47650;49.848;9.620;2022-10-15T07:10:05;3.72;;;2.60;;
61741;SDS011;47650;49.848;9.620;2022-10-15T07:12:30;5.53;;;2.30;;
61741;SDS011;47650;49.848;9.620;2022-10-15T07:14:58;3.83;;;2.47;;
61741;SDS011;47650;49.848;9.620;2022-10-15T07:17:29;5.07;;;2.97;;
61741;SDS011;47650;49.848;9.620;2022-10-15T07:19:55;5.53;;;3.10;;
61741;SDS011;47650;49.848;9.620;2022-10-15T07:22:20;8.55;;;3.13;;
61741;SDS011;47650;49.848;9.620;2022-10-15T07:24:47;5.30;;;3.17;;
61741;SDS011;47650;49.848;9.620;2022-10-15T07:27:12;3.50;;;2.30;;
61741;SDS011;47650;49.848;9.620;2022-10-15T07:29:38;2.50;;;1.60;;
61741;SDS011;47650;49.848;9.620;2022-10-15T07:32:03;2.35;;;1.60;;
61741;SDS011;47650;49.848;9.620;2022-10-15T07:34:30;2.30;;;1.40;;
61741;SDS011;47650;49.848;9.620;2022-10-15T07:36:55;5.80;;;2.03;;
61741;SDS011;47650;49.848;9.620;2022-10-15T07:39:20;4.18;;;2.00;;
61741;SDS011;47650;49.848;9.620;2022-10-15T07:41:45;2.72;;;1.20;;
61741;SDS011;47650;49.848;9.620;2022-10-15T07:44:11;2.00;;;1.13;;
61741;SDS011;47650;49.848;9.620;2022-10-15T07:46:36;3.28;;;1.70;;
61741;SDS011;47650;49.848;9.620;2022-10-15T07:49:03;4.80;;;1.60;;
61741;SDS011;47650;49.848;9.620;2022-10-15T07:51:28;4.05;;;1.42;;
61741;SDS011;47650;49.848;9.620;2022-10-15T07:53:54;4.53;;;1.13;;
61741;SDS011;47650;49.848;9.620;2022-10-15T07:56:19;1.45;;;1.00;;
61741;SDS011;47650;49.848;9.620;2022-10-15T07:58:46;1.67;;;1.15;;
61741;SDS011;47650;49.848;9.620;2022-10-15T08:01:20;2.90;;;1.08;;
61741;SDS011;47650;49.848;9.620;2022-10-15T08:03:51;0.90;;;0.80;;
61741;SDS011;47650;49.848;9.620;2022-10-15T08:06:17;2.80;;;0.93;;
61741;SDS011;47650;49.848;9.620;2022-10-15T08:08:44;1.52;;;0.85;;
61741;SDS011;47650;49.848;9.620;2022-10-15T08:11:13;2.00;;;0.88;;
61741;SDS011;47650;49.848;9.620;2022-10-15T08:13:40;1.35;;;0.90;;
61741;SDS011;47650;49.848;9.620;2022-10-15T08:16:07;1.05;;;0.90;;
61741;SDS011;47650;49.848;9.620;2022-10-15T08:18:37;2.47;;;0.85;;
61741;SDS011;47650;49.848;9.620;2022-10-15T08:21:03;0.60;;;0.57;;
61741;SDS011;47650;49.848;9.620;2022-10-15T08:23:31;1.77;;;0.70;;
61741;SDS011;47650;49.848;9.620;2022-10-15T08:26:03;1.17;;;0.80;;
61741;SDS011;47650;49.848;9.620;2022-10-15T08:28:29;1.25;;;0.90;;
61741;SDS011;47650;49.848;9.620;2022-10-15T08:30:58;0.70;;;0.70;;
61741;SDS011;47650;49.848;9.620;2022-10-15T08:33:24;1.17;;;0.80;;
61741;SDS011;47650;49.848;9.620;2022-10-15T08:35:50;1.02;;;0.90;;
61741;SDS011;47650;49.848;9.620;2022-10-15T08:38:16;1.70;;;0.80;;
61741;SDS011;47650;49.848;9.620;2022-10-15T08:40:45;1.85;;;0.95;;
61741;SDS011;47650;49.848;9.620;2022-10-15T08:43:17;4.65;;;1.25;;
61741;SDS011;47650;49.848;9.620;2022-10-15T08:45:48;2.58;;;0.90;;
61741;SDS011;47650;49.848;9.620;2022-10-15T08:48:21;1.10;;;0.70;;
61741;SDS011;47650;49.848;9.620;2022-10-15T08:51:01;5.32;;;1.13;;
61741;SDS011;47650;49.848;9.620;2022-10-15T08:53:33;1.95;;;0.80;;
61741;SDS011;47650;49.848;9.620;2022-10-15T08:56:20;0.80;;;0.60;;
61741;SDS011;47650;49.848;9.620;2022-10-15T09:02:01;1.77;;;0.70;;
61741;SDS011;47650;49.848;9.620;2022-10-15T09:07:47;0.70;;;0.70;;
61741;SDS011;47650;49.848;9.620;2022-10-15T09:10:25;1.27;;;0.77;;
61741;SDS011;47650;49.848;9.620;2022-10-15T09:13:09;0.80;;;0.80;;
61741;SDS011;47650;49.848;9.620;2022-10-15T09:15:49;0.93;;;0.90;;
61741;SDS011;47650;49.848;9.620;2022-10-15T09:18:20;1.85;;;0.85;;
61741;SDS011;47650;49.848;9.620;2022-10-15T09:20:49;3.78;;;0.70;;
61741;SDS011;47650;49.848;9.620;2022-10-15T09:23:19;1.73;;;0.70;;
61741;SDS011;47650;49.848;9.620;2022-10-15T09:25:48;0.90;;;0.80;;
61741;SDS011;47650;49.848;9.620;2022-10-15T09:28:23;0.80;;;0.80;;
61741;SDS011;47650;49.848;9.620;2022-10-15T09:30:57;0.90;;;0.90;;
61741;SDS011;47650;49.848;9.620;2022-10-15T09:36:06;2.25;;;1.60;;
61741;SDS011;47650;49.848;9.620;2022-10-15T09:41:12;1.73;;;1.00;;
61741;SDS011;47650;49.848;9.620;2022-10-15T09:44:00;1.45;;;1.20;;
61741;SDS011;47650;49.848;9.620;2022-10-15T09:46:29;1.70;;;1.10;;
61741;SDS011;47650;49.848;9.620;2022-10-15T09:49:15;11.32;;;1.98;;
61741;SDS011;47650;49.848;9.620;2022-10-15T09:56:56;2.58;;;1.10;;
61741;SDS011;47650;49.848;9.620;2022-10-15T09:59:24;1.48;;;0.85;;
61741;SDS011;47650;49.848;9.620;2022-10-15T10:04:49;1.52;;;1.02;;
61741;SDS011;47650;49.848;9.620;2022-10-15T10:09:55;1.42;;;1.27;;
61741;SDS011;47650;49.848;9.620;2022-10-15T10:12:32;2.58;;;1.30;;
61741;SDS011;47650;49.848;9.620;2022-10-15T10:15:02;1.63;;;1.38;;
61741;SDS011;47650;49.848;9.620;2022-10-15T10:17:34;2.85;;;1.20;;
61741;SDS011;47650;49.848;9.620;2022-10-15T10:22:47;1.60;;;1.33;;
61741;SDS011;47650;49.848;9.620;2022-10-15T10:27:54;1.20;;;1.10;;
61741;SDS011;47650;49.848;9.620;2022-10-15T10:34:00;1.15;;;0.80;;
61741;SDS011;47650;49.848;9.620;2022-10-15T10:36:17;0.73;;;0.70;;
61741;SDS011;47650;49.848;9.620;2022-10-15T10:39:00;1.58;;;0.90;;
61741;SDS011;47650;49.848;9.620;2022-10-15T10:44:17;3.80;;;0.80;;
61741;SDS011;47650;49.848;9.620;2022-10-15T10:47:04;1.13;;;0.90;;
61741;SDS011;47650;49.848;9.620;2022-10-15T10:49:37;1.40;;;0.80;;
61741;SDS011;47650;49.848;9.620;2022-10-15T10:52:17;1.80;;;0.90;;
61741;SDS011;47650;49.848;9.620;2022-10-15T10:54:44;0.80;;;0.80;;
61741;SDS011;47650;49.848;9.620;2022-10-15T10:57:10;3.42;;;1.02;;
61741;SDS011;47650;49.848;9.620;2022-10-15T10:59:48;1.08;;;1.00;;
61741;SDS011;47650;49.848;9.620;2022-10-15T11:02:16;0.80;;;0.80;;
61741;SDS011;47650;49.848;9.620;2022-10-15T11:04:41;5.45;;;1.02;;
61741;SDS011;47650;49.848;9.620;2022-10-15T11:12:07;1.05;;;0.90;;
61741;SDS011;47650;49.848;9.620;2022-10-15T11:20:49;1.67;;;0.95;;
61741;SDS011;47650;49.848;9.620;2022-10-15T11:23:31;1.58;;;0.90;;
61741;SDS011;47650;49.848;9.620;2022-10-15T11:26:14;1.05;;;1.00;;
61741;SDS011;47650;49.848;9.620;2022-10-15T11:37:04;0.88;;;0.60;;
61741;SDS011;47650;49.848;9.620;2022-10-15T11:50:27;1.33;;;0.77;;
61741;SDS011;47650;49.848;9.620;2022-10-15T11:58:49;1.35;;;0.47;;
61741;SDS011;47650;49.848;9.620;2022-10-15T12:01:38;0.73;;;0.50;;
61741;SDS011;47650;49.848;9.620;2022-10-15T12:08:09;0.60;;;0.60;;
61741;SDS011;47650;49.848;9.620;2022-10-15T12:20:41;1.60;;;0.80;;
61741;SDS011;47650;49.848;9.620;2022-10-15T12:23:21;2.17;;;1.15;;
61741;SDS011;47650;49.848;9.620;2022-10-15T12:26:26;1.25;;;0.60;;
61741;SDS011;47650;49.848;9.620;2022-10-15T12:28:59;0.77;;;0.77;;
61741;SDS011;47650;49.848;9.620;2022-10-15T12:31:40;2.83;;;1.05;;
61741;SDS011;47650;49.848;9.620;2022-10-15T12:34:12;0.60;;;0.60;;
61741;SDS011;47650;49.848;9.620;2022-10-15T12:37:06;0.68;;;0.50;;
61741;SDS011;47650;49.848;9.620;2022-10-15T12:39:41;0.75;;;0.50;;
61741;SDS011;47650;49.848;9.620;2022-10-15T12:44:55;0.95;;;0.57;;
61741;SDS011;47650;49.848;9.620;2022-10-15T12:50:23;1.20;;;0.60;;
61741;SDS011;47650;49.848;9.620;2022-10-15T12:52:58;1.45;;;0.70;;
61741;SDS011;47650;49.848;9.620;2022-10-15T12:55:35;0.60;;;0.60;;
61741;SDS011;47650;49.848;9.620;2022-10-15T13:00:57;1.80;;;0.60;;
61741;SDS011;47650;49.848;9.620;2022-10-15T13:06:39;2.33;;;0.68;;
61741;SDS011;47650;49.848;9.620;2022-10-15T13:11:56;2.30;;;0.80;;
61741;SDS011;47650;49.848;9.620;2022-10-15T13:16:54;2.03;;;0.70;;
61741;SDS011;47650;49.848;9.620;2022-10-15T13:19:23;2.25;;;0.90;;
61741;SDS011;47650;49.848;9.620;2022-10-15T13:21:53;2.63;;;0.70;;
61741;SDS011;47650;49.848;9.620;2022-10-15T13:24:24;3.13;;;0.90;;
61741;SDS011;47650;49.848;9.620;2022-10-15T13:26:52;4.63;;;0.90;;
61741;SDS011;47650;49.848;9.620;2022-10-15T13:29:20;1.88;;;0.90;;
61741;SDS011;47650;49.848;9.620;2022-10-15T13:31:49;2.67;;;0.75;;
61741;SDS011;47650;49.848;9.620;2022-10-15T13:34:30;2.08;;;0.70;;
61741;SDS011;47650;49.848;9.620;2022-10-15T13:37:03;1.23;;;0.63;;
61741;SDS011;47650;49.848;9.620;2022-10-15T13:39:32;1.23;;;0.60;;
61741;SDS011;47650;49.848;9.620;2022-10-15T13:42:08;1.00;;;0.67;;
61741;SDS011;47650;49.848;9.620;2022-10-15T13:44:58;0.70;;;0.60;;
61741;SDS011;47650;49.848;9.620;2022-10-15T14:00:54;1.58;;;0.70;;
61741;SDS011;47650;49.848;9.620;2022-10-15T14:03:21;1.60;;;0.50;;
61741;SDS011;47650;49.848;9.620;2022-10-15T14:06:15;1.00;;;0.55;;
61741;SDS011;47650;49.848;9.620;2022-10-15T14:08:45;0.50;;;0.50;;
61741;SDS011;47650;49.848;9.620;2022-10-15T14:11:15;1.58;;;0.70;;
61741;SDS011;47650;49.848;9.620;2022-10-15T14:13:48;0.93;;;0.57;;
61741;SDS011;47650;49.848;9.620;2022-10-15T14:18:55;0.57;;;0.40;;
61741;SDS011;47650;49.848;9.620;2022-10-15T14:21:24;0.35;;;0.35;;
61741;SDS011;47650;49.848;9.620;2022-10-15T14:24:09;0.40;;;0.40;;
61741;SDS011;47650;49.848;9.620;2022-10-15T14:26:38;0.85;;;0.40;;
61741;SDS011;47650;49.848;9.620;2022-10-15T14:29:04;1.15;;;0.47;;
61741;SDS011;47650;49.848;9.620;2022-10-15T14:31:44;0.95;;;0.50;;
61741;SDS011;47650;49.848;9.620;2022-10-15T14:34:27;2.95;;;0.47;;
61741;SDS011;47650;49.848;9.620;2022-10-15T14:36:59;0.80;;;0.40;;
61741;SDS011;47650;49.848;9.620;2022-10-15T14:39:33;1.25;;;0.60;;
61741;SDS011;47650;49.848;9.620;2022-10-15T14:44:39;0.57;;;0.40;;
61741;SDS011;47650;49.848;9.620;2022-10-15T14:47:19;1.60;;;0.40;;
61741;SDS011;47650;49.848;9.620;2022-10-15T14:49:53;8.13;;;0.77;;
61741;SDS011;47650;49.848;9.620;2022-10-15T14:52:20;1.42;;;0.60;;
61741;SDS011;47650;49.848;9.620;2022-10-15T14:54:56;1.75;;;0.60;;
61741;SDS011;47650;49.848;9.620;2022-10-15T14:57:29;0.63;;;0.52;;
61741;SDS011;47650;49.848;9.620;2022-10-15T15:00:08;0.40;;;0.40;;
61741;SDS011;47650;49.848;9.620;2022-10-15T15:02:39;0.30;;;0.30;;
61741;SDS011;47650;49.848;9.620;2022-10-15T15:05:16;0.88;;;0.60;;
61741;SDS011;47650;49.848;9.620;2022-10-15T15:07:46;0.98;;;0.50;;
61741;SDS011;47650;49.848;9.620;2022-10-15T15:10:14;0.73;;;0.60;;
61741;SDS011;47650;49.848;9.620;2022-10-15T15:12:40;0.30;;;0.30;;
61741;SDS011;47650;49.848;9.620;2022-10-15T15:15:12;3.15;;;0.60;;
61741;SDS011;47650;49.848;9.620;2022-10-15T15:17:40;2.47;;;0.75;;
61741;SDS011;47650;49.848;9.620;2022-10-15T15:20:06;1.90;;;0.47;;
61741;SDS011;47650;49.848;9.620;2022-10-15T15:22:34;2.45;;;0.60;;
61741;SDS011;47650;49.848;9.620;2022-10-15T15:25:02;2.35;;;0.80;;
61741;SDS011;47650;49.848;9.620;2022-10-15T15:27:34;3.17;;;0.90;;
61741;SDS011;47650;49.848;9.620;2022-10-15T15:30:02;2.30;;;0.88;;
61741;SDS011;47650;49.848;9.620;2022-10-15T15:32:28;2.50;;;1.55;;
61741;SDS011;47650;49.848;9.620;2022-10-15T15:34:55;3.80;;;1.40;;
61741;SDS011;47650;49.848;9.620;2022-10-15T15:37:22;2.75;;;1.20;;
61741;SDS011;47650;49.848;9.620;2022-10-15T15:39:49;5.28;;;2.05;;
61741;SDS011;47650;49.848;9.620;2022-10-15T15:42:15;2.40;;;1.10;;
61741;SDS011;47650;49.848;9.620;2022-10-15T15:44:42;0.85;;;0.55;;
61741;SDS011;47650;49.848;9.620;2022-10-15T15:47:10;0.75;;;0.63;;
61741;SDS011;47650;49.848;9.620;2022-10-15T15:49:36;2.50;;;1.02;;
61741;SDS011;47650;49.848;9.620;2022-10-15T15:52:02;2.47;;;1.85;;
61741;SDS011;47650;49.848;9.620;2022-10-15T15:54:29;2.25;;;1.00;;
61741;SDS011;47650;49.848;9.620;2022-10-15T15:56:55;2.70;;;0.63;;
61741;SDS011;47650;49.848;9.620;2022-10-15T15:59:20;3.22;;;0.68;;
61741;SDS011;47650;49.848;9.620;2022-10-15T16:01:45;3.25;;;0.75;;
61741;SDS011;47650;49.848;9.620;2022-10-15T16:04:11;1.25;;;0.60;;
61741;SDS011;47650;49.848;9.620;2022-10-15T16:06:37;1.63;;;0.85;;
61741;SDS011;47650;49.848;9.620;2022-10-15T16:09:03;1.52;;;0.50;;
61741;SDS011;47650;49.848;9.620;2022-10-15T16:11:30;1.48;;;0.70;;
61741;SDS011;47650;49.848;9.620;2022-10-15T16:13:56;1.42;;;0.70;;
61741;SDS011;47650;49.848;9.620;2022-10-15T16:16:21;1.60;;;0.70;;
61741;SDS011;47650;49.848;9.620;2022-10-15T16:18:50;3.35;;;1.05;;
61741;SDS011;47650;49.848;9.620;2022-10-15T16:21:22;1.58;;;0.80;;
61741;SDS011;47650;49.848;9.620;2022-10-15T16:23:48;2.75;;;0.80;;
61741;SDS011;47650;49.848;9.620;2022-10-15T16:26:14;1.90;;;0.95;;
61741;SDS011;47650;49.848;9.620;2022-10-15T16:28:40;0.98;;;0.80;;
61741;SDS011;47650;49.848;9.620;2022-10-15T16:31:39;3.33;;;0.93;;
61741;SDS011;47650;49.848;9.620;2022-10-15T16:34:01;2.78;;;1.00;;
61741;SDS011;47650;49.848;9.620;2022-10-15T16:36:27;3.22;;;1.10;;
61741;SDS011;47650;49.848;9.620;2022-10-15T16:38:53;2.67;;;1.00;;
61741;SDS011;47650;49.848;9.620;2022-10-15T16:41:19;3.90;;;1.13;;
61741;SDS011;47650;49.848;9.620;2022-10-15T16:43:44;3.75;;;1.58;;
61741;SDS011;47650;49.848;9.620;2022-10-15T16:46:11;2.67;;;1.20;;
61741;SDS011;47650;49.848;9.620;2022-10-15T16:48:37;3.45;;;1.20;;
61741;SDS011;47650;49.848;9.620;2022-10-15T16:53:30;1.55;;;0.90;;
61741;SDS011;47650;49.848;9.620;2022-10-15T16:55:59;4.28;;;1.00;;
61741;SDS011;47650;49.848;9.620;2022-10-15T16:58:29;2.80;;;1.20;;
61741;SDS011;47650;49.848;9.620;2022-10-15T17:00:58;1.75;;;0.90;;
61741;SDS011;47650;49.848;9.620;2022-10-15T17:03:25;2.15;;;1.20;;
61741;SDS011;47650;49.848;9.620;2022-10-15T17:05:56;2.05;;;1.00;;
61741;SDS011;47650;49.848;9.620;2022-10-15T17:08:27;2.42;;;0.90;;
61741;SDS011;47650;49.848;9.620;2022-10-15T17:10:59;1.77;;;1.00;;
61741;SDS011;47650;49.848;9.620;2022-10-15T17:13:24;1.65;;;1.00;;
61741;SDS011;47650;49.848;9.620;2022-10-15T17:15:50;3.67;;;1.75;;
61741;SDS011;47650;49.848;9.620;2022-10-15T17:18:15;1.02;;;0.90;;
61741;SDS011;47650;49.848;9.620;2022-10-15T17:20:44;2.17;;;0.80;;
61741;SDS011;47650;49.848;9.620;2022-10-15T17:23:11;1.73;;;1.05;;
61741;SDS011;47650;49.848;9.620;2022-10-15T17:25:37;1.88;;;0.80;;
61741;SDS011;47650;49.848;9.620;2022-10-15T17:28:03;10.13;;;1.42;;